sensor_id;sensor_type;location;lat;lon;timestamp;P1;durP1;ratioP1;P2;durP2;ratioP2
305;SDS011;137;48.578;9.180;2022-07-30T00:01:47;6.57;;;4.33;;
305;SDS011;137;48.578;9.180;2022-07-30T00:04:15;6.00;;;5.33;;
305;SDS011;137;48.578;9.180;2022-07-30T00:06:42;4.80;;;4.40;;
305;SDS011;137;48.578;9.180;2022-07-30T00:09:09;4.47;;;4.07;;
305;SDS011;137;48.578;9.180;2022-07-30T00:11:36;4.37;;;3.97;;
305;SDS011;137;48.578;9.180;2022-07-30T00:14:03;4.50;;;3.90;;
305;SDS011;137;48.578;9.180;2022-07-30T00:16:30;4.50;;;4.07;;
305;SDS011;137;48.578;9.180;2022-07-30T00:18:56;4.10;;;3.80;;
305;SDS011;137;48.578;9.180;2022-07-30T00:21:25;3.87;;;3.57;;
305;SDS011;137;48.578;9.180;2022-07-30T00:23:52;4.10;;;3.80;;
305;SDS011;137;48.578;9.180;2022-07-30T00:26:18;3.53;;;3.33;;
305;SDS011;137;48.578;9.180;2022-07-30T00:28:45;4.10;;;3.80;;
305;SDS011;137;48.578;9.180;2022-07-30T00:31:12;3.93;;;3.63;;
305;SDS011;137;48.578;9.180;2022-07-30T00:33:39;9.30;;;4.43;;
305;SDS011;137;48.578;9.180;2022-07-30T00:36:06;3.90;;;3.50;;
305;SDS011;137;48.578;9.180;2022-07-30T00:38:34;3.70;;;3.40;;
305;SDS011;137;48.578;9.180;2022-07-30T00:41:00;4.70;;;3.40;;
305;SDS011;137;48.578;9.180;2022-07-30T00:43:27;4.30;;;4.00;;
305;SDS011;137;48.578;9.180;2022-07-30T00:45:54;3.93;;;3.53;;
305;SDS011;137;48.578;9.180;2022-07-30T00:48:21;3.90;;;3.60;;
305;SDS011;137;48.578;9.180;2022-07-30T00:50:48;4.57;;;4.23;;
305;SDS011;137;48.578;9.180;2022-07-30T00:53:15;4.27;;;3.77;;
305;SDS011;137;48.578;9.180;2022-07-30T00:55:43;6.40;;;4.00;;
305;SDS011;137;48.578;9.180;2022-07-30T00:58:10;4.03;;;3.63;;
305;SDS011;137;48.578;9.180;2022-07-30T01:00:36;3.47;;;3.27;;
305;SDS011;137;48.578;9.180;2022-07-30T01:03:03;4.00;;;3.70;;
305;SDS011;137;48.578;9.180;2022-07-30T01:05:31;3.30;;;3.07;;
305;SDS011;137;48.578;9.180;2022-07-30T01:07:58;3.40;;;3.20;;
305;SDS011;137;48.578;9.180;2022-07-30T01:10:24;3.87;;;3.57;;
305;SDS011;137;48.578;9.180;2022-07-30T01:12:53;4.63;;;3.80;;
305;SDS011;137;48.578;9.180;2022-07-30T01:15:21;4.07;;;3.57;;
305;SDS011;137;48.578;9.180;2022-07-30T01:17:48;3.73;;;3.30;;
305;SDS011;137;48.578;9.180;2022-07-30T01:20:20;3.70;;;3.40;;
305;SDS011;137;48.578;9.180;2022-07-30T01:22:51;3.70;;;3.40;;
305;SDS011;137;48.578;9.180;2022-07-30T01:28:10;8.70;;;3.73;;
305;SDS011;137;48.578;9.180;2022-07-30T01:30:41;4.17;;;3.77;;
305;SDS011;137;48.578;9.180;2022-07-30T01:33:09;3.87;;;3.57;;
305;SDS011;137;48.578;9.180;2022-07-30T01:35:39;6.07;;;3.80;;
305;SDS011;137;48.578;9.180;2022-07-30T01:38:08;4.63;;;4.30;;
305;SDS011;137;48.578;9.180;2022-07-30T01:40:37;3.60;;;3.30;;
305;SDS011;137;48.578;9.180;2022-07-30T01:43:05;3.93;;;3.63;;
305;SDS011;137;48.578;9.180;2022-07-30T01:45:33;5.40;;;4.90;;
305;SDS011;137;48.578;9.180;2022-07-30T01:48:03;4.60;;;4.20;;
305;SDS011;137;48.578;9.180;2022-07-30T01:50:33;4.47;;;4.10;;
305;SDS011;137;48.578;9.180;2022-07-30T01:53:01;4.80;;;4.00;;
305;SDS011;137;48.578;9.180;2022-07-30T01:55:30;3.87;;;3.67;;
305;SDS011;137;48.578;9.180;2022-07-30T01:58:00;3.60;;;3.30;;
305;SDS011;137;48.578;9.180;2022-07-30T02:00:31;4.40;;;4.00;;
305;SDS011;137;48.578;9.180;2022-07-30T02:03:01;4.23;;;3.93;;
305;SDS011;137;48.578;9.180;2022-07-30T02:05:29;4.20;;;3.90;;
305;SDS011;137;48.578;9.180;2022-07-30T02:08:00;4.30;;;4.00;;
305;SDS011;137;48.578;9.180;2022-07-30T02:10:32;4.20;;;3.80;;
305;SDS011;137;48.578;9.180;2022-07-30T02:13:04;6.13;;;4.17;;
305;SDS011;137;48.578;9.180;2022-07-30T02:15:37;4.40;;;4.10;;
305;SDS011;137;48.578;9.180;2022-07-30T02:18:09;3.93;;;3.63;;
305;SDS011;137;48.578;9.180;2022-07-30T02:20:43;5.20;;;3.70;;
305;SDS011;137;48.578;9.180;2022-07-30T02:23:13;4.67;;;4.20;;
305;SDS011;137;48.578;9.180;2022-07-30T02:25:42;4.30;;;4.00;;
305;SDS011;137;48.578;9.180;2022-07-30T02:28:14;6.53;;;4.40;;
305;SDS011;137;48.578;9.180;2022-07-30T02:30:47;6.07;;;4.40;;
305;SDS011;137;48.578;9.180;2022-07-30T02:33:18;4.83;;;4.43;;
305;SDS011;137;48.578;9.180;2022-07-30T02:35:49;4.77;;;4.33;;
305;SDS011;137;48.578;9.180;2022-07-30T02:38:17;4.70;;;4.40;;
305;SDS011;137;48.578;9.180;2022-07-30T02:40:45;4.77;;;4.47;;
305;SDS011;137;48.578;9.180;2022-07-30T02:43:14;4.57;;;4.00;;
305;SDS011;137;48.578;9.180;2022-07-30T02:45:45;4.80;;;4.33;;
305;SDS011;137;48.578;9.180;2022-07-30T02:48:14;4.60;;;4.20;;
305;SDS011;137;48.578;9.180;2022-07-30T02:50:43;4.30;;;3.90;;
305;SDS011;137;48.578;9.180;2022-07-30T02:53:10;6.30;;;5.00;;
305;SDS011;137;48.578;9.180;2022-07-30T02:55:39;4.57;;;4.10;;
305;SDS011;137;48.578;9.180;2022-07-30T02:58:07;8.27;;;4.90;;
305;SDS011;137;48.578;9.180;2022-07-30T03:00:35;4.57;;;4.10;;
305;SDS011;137;48.578;9.180;2022-07-30T03:03:05;4.90;;;3.80;;
305;SDS011;137;48.578;9.180;2022-07-30T03:05:33;4.93;;;3.70;;
305;SDS011;137;48.578;9.180;2022-07-30T03:08:02;4.50;;;4.10;;
305;SDS011;137;48.578;9.180;2022-07-30T03:10:32;3.90;;;3.60;;
305;SDS011;137;48.578;9.180;2022-07-30T03:13:01;4.17;;;3.87;;
305;SDS011;137;48.578;9.180;2022-07-30T03:15:31;4.33;;;3.93;;
305;SDS011;137;48.578;9.180;2022-07-30T03:17:59;4.73;;;3.83;;
305;SDS011;137;48.578;9.180;2022-07-30T03:20:28;3.83;;;3.53;;
305;SDS011;137;48.578;9.180;2022-07-30T03:22:58;4.00;;;3.70;;
305;SDS011;137;48.578;9.180;2022-07-30T03:25:28;4.40;;;3.50;;
305;SDS011;137;48.578;9.180;2022-07-30T03:27:56;5.00;;;4.50;;
305;SDS011;137;48.578;9.180;2022-07-30T03:30:25;8.50;;;4.20;;
305;SDS011;137;48.578;9.180;2022-07-30T03:32:54;3.80;;;3.50;;
305;SDS011;137;48.578;9.180;2022-07-30T03:35:21;3.93;;;3.63;;
305;SDS011;137;48.578;9.180;2022-07-30T03:37:51;4.63;;;4.30;;
305;SDS011;137;48.578;9.180;2022-07-30T03:40:19;5.93;;;4.70;;
305;SDS011;137;48.578;9.180;2022-07-30T03:42:47;4.60;;;4.30;;
305;SDS011;137;48.578;9.180;2022-07-30T03:45:15;5.17;;;4.73;;
305;SDS011;137;48.578;9.180;2022-07-30T03:47:43;6.10;;;4.20;;
305;SDS011;137;48.578;9.180;2022-07-30T03:50:12;6.00;;;5.50;;
305;SDS011;137;48.578;9.180;2022-07-30T03:52:40;4.70;;;4.33;;
305;SDS011;137;48.578;9.180;2022-07-30T03:55:10;5.33;;;4.70;;
305;SDS011;137;48.578;9.180;2022-07-30T03:57:37;4.97;;;4.57;;
305;SDS011;137;48.578;9.180;2022-07-30T04:00:04;5.40;;;4.90;;
305;SDS011;137;48.578;9.180;2022-07-30T04:02:39;5.00;;;4.50;;
305;SDS011;137;48.578;9.180;2022-07-30T04:05:06;6.37;;;5.87;;
305;SDS011;137;48.578;9.180;2022-07-30T04:07:34;6.30;;;5.70;;
305;SDS011;137;48.578;9.180;2022-07-30T04:10:00;5.00;;;4.60;;
305;SDS011;137;48.578;9.180;2022-07-30T04:12:29;5.73;;;5.13;;
305;SDS011;137;48.578;9.180;2022-07-30T04:14:56;6.00;;;5.30;;
305;SDS011;137;48.578;9.180;2022-07-30T04:17:24;5.43;;;4.93;;
305;SDS011;137;48.578;9.180;2022-07-30T04:19:55;6.00;;;5.50;;
305;SDS011;137;48.578;9.180;2022-07-30T04:22:27;4.90;;;4.50;;
305;SDS011;137;48.578;9.180;2022-07-30T04:24:57;5.50;;;5.00;;
305;SDS011;137;48.578;9.180;2022-07-30T04:27:26;5.40;;;5.00;;
305;SDS011;137;48.578;9.180;2022-07-30T04:29:55;6.00;;;5.20;;
305;SDS011;137;48.578;9.180;2022-07-30T04:32:22;5.47;;;5.00;;
305;SDS011;137;48.578;9.180;2022-07-30T04:34:50;5.87;;;5.47;;
305;SDS011;137;48.578;9.180;2022-07-30T04:37:19;5.30;;;4.80;;
305;SDS011;137;48.578;9.180;2022-07-30T04:39:47;5.63;;;5.13;;
305;SDS011;137;48.578;9.180;2022-07-30T04:42:18;7.03;;;5.30;;
305;SDS011;137;48.578;9.180;2022-07-30T04:44:45;5.70;;;5.20;;
305;SDS011;137;48.578;9.180;2022-07-30T04:47:13;6.83;;;6.13;;
305;SDS011;137;48.578;9.180;2022-07-30T04:49:40;5.67;;;5.10;;
305;SDS011;137;48.578;9.180;2022-07-30T04:52:08;7.00;;;6.40;;
305;SDS011;137;48.578;9.180;2022-07-30T04:54:37;6.10;;;5.60;;
305;SDS011;137;48.578;9.180;2022-07-30T04:57:08;6.37;;;5.77;;
305;SDS011;137;48.578;9.180;2022-07-30T04:59:35;5.87;;;5.30;;
305;SDS011;137;48.578;9.180;2022-07-30T05:02:03;5.50;;;5.00;;
305;SDS011;137;48.578;9.180;2022-07-30T05:04:34;5.97;;;4.77;;
305;SDS011;137;48.578;9.180;2022-07-30T05:07:02;5.53;;;5.10;;
305;SDS011;137;48.578;9.180;2022-07-30T05:09:32;4.73;;;4.33;;
305;SDS011;137;48.578;9.180;2022-07-30T05:11:59;5.13;;;4.57;;
305;SDS011;137;48.578;9.180;2022-07-30T05:14:26;5.30;;;4.90;;
305;SDS011;137;48.578;9.180;2022-07-30T05:16:53;5.03;;;4.63;;
305;SDS011;137;48.578;9.180;2022-07-30T05:19:20;5.10;;;4.50;;
305;SDS011;137;48.578;9.180;2022-07-30T05:21:48;4.40;;;3.73;;
305;SDS011;137;48.578;9.180;2022-07-30T05:24:15;4.20;;;3.80;;
305;SDS011;137;48.578;9.180;2022-07-30T05:26:43;4.77;;;4.30;;
305;SDS011;137;48.578;9.180;2022-07-30T05:29:10;5.30;;;4.90;;
305;SDS011;137;48.578;9.180;2022-07-30T05:31:37;4.80;;;4.30;;
305;SDS011;137;48.578;9.180;2022-07-30T05:34:05;4.60;;;4.30;;
305;SDS011;137;48.578;9.180;2022-07-30T05:36:32;4.90;;;4.20;;
305;SDS011;137;48.578;9.180;2022-07-30T05:39:01;5.17;;;4.30;;
305;SDS011;137;48.578;9.180;2022-07-30T05:41:28;5.40;;;4.90;;
305;SDS011;137;48.578;9.180;2022-07-30T05:43:55;4.87;;;4.40;;
305;SDS011;137;48.578;9.180;2022-07-30T05:46:22;4.73;;;4.30;;
305;SDS011;137;48.578;9.180;2022-07-30T05:48:49;4.67;;;4.27;;
305;SDS011;137;48.578;9.180;2022-07-30T05:51:16;5.07;;;4.13;;
305;SDS011;137;48.578;9.180;2022-07-30T05:53:44;6.07;;;5.57;;
305;SDS011;137;48.578;9.180;2022-07-30T05:56:12;5.33;;;4.77;;
305;SDS011;137;48.578;9.180;2022-07-30T05:58:39;4.63;;;4.23;;
305;SDS011;137;48.578;9.180;2022-07-30T06:01:06;4.80;;;4.40;;
305;SDS011;137;48.578;9.180;2022-07-30T06:03:33;4.47;;;4.07;;
305;SDS011;137;48.578;9.180;2022-07-30T06:06:01;7.00;;;5.10;;
305;SDS011;137;48.578;9.180;2022-07-30T06:08:28;4.73;;;4.33;;
305;SDS011;137;48.578;9.180;2022-07-30T06:10:55;5.60;;;3.70;;
305;SDS011;137;48.578;9.180;2022-07-30T06:13:23;5.67;;;5.17;;
305;SDS011;137;48.578;9.180;2022-07-30T06:15:51;5.70;;;4.37;;
305;SDS011;137;48.578;9.180;2022-07-30T06:18:18;5.20;;;4.70;;
305;SDS011;137;48.578;9.180;2022-07-30T06:20:44;5.90;;;5.20;;
305;SDS011;137;48.578;9.180;2022-07-30T06:23:13;4.83;;;4.43;;
305;SDS011;137;48.578;9.180;2022-07-30T06:25:40;5.30;;;4.90;;
305;SDS011;137;48.578;9.180;2022-07-30T06:28:07;4.70;;;4.30;;
305;SDS011;137;48.578;9.180;2022-07-30T06:30:35;6.50;;;4.70;;
305;SDS011;137;48.578;9.180;2022-07-30T06:33:02;5.30;;;4.80;;
305;SDS011;137;48.578;9.180;2022-07-30T06:35:29;4.80;;;4.40;;
305;SDS011;137;48.578;9.180;2022-07-30T06:37:55;4.47;;;4.07;;
305;SDS011;137;48.578;9.180;2022-07-30T06:40:22;5.23;;;4.27;;
305;SDS011;137;48.578;9.180;2022-07-30T06:42:49;4.63;;;4.10;;
305;SDS011;137;48.578;9.180;2022-07-30T06:45:16;6.47;;;4.77;;
305;SDS011;137;48.578;9.180;2022-07-30T06:47:44;5.23;;;4.73;;
305;SDS011;137;48.578;9.180;2022-07-30T06:50:11;4.57;;;4.23;;
305;SDS011;137;48.578;9.180;2022-07-30T06:52:38;5.00;;;4.60;;
305;SDS011;137;48.578;9.180;2022-07-30T06:55:05;4.20;;;3.90;;
305;SDS011;137;48.578;9.180;2022-07-30T06:57:33;5.50;;;5.10;;
305;SDS011;137;48.578;9.180;2022-07-30T06:59:59;6.03;;;4.80;;
305;SDS011;137;48.578;9.180;2022-07-30T07:02:26;5.20;;;4.80;;
305;SDS011;137;48.578;9.180;2022-07-30T07:04:55;4.93;;;4.03;;
305;SDS011;137;48.578;9.180;2022-07-30T07:07:21;4.23;;;3.93;;
305;SDS011;137;48.578;9.180;2022-07-30T07:09:49;4.13;;;3.63;;
305;SDS011;137;48.578;9.180;2022-07-30T07:12:15;4.70;;;4.30;;
305;SDS011;137;48.578;9.180;2022-07-30T07:14:42;4.60;;;4.20;;
305;SDS011;137;48.578;9.180;2022-07-30T07:17:10;5.90;;;4.30;;
305;SDS011;137;48.578;9.180;2022-07-30T07:19:38;4.97;;;4.40;;
305;SDS011;137;48.578;9.180;2022-07-30T07:22:06;5.73;;;5.13;;
305;SDS011;137;48.578;9.180;2022-07-30T07:24:33;4.90;;;4.40;;
305;SDS011;137;48.578;9.180;2022-07-30T07:27:00;5.40;;;4.90;;
305;SDS011;137;48.578;9.180;2022-07-30T07:29:27;7.43;;;4.87;;
305;SDS011;137;48.578;9.180;2022-07-30T07:31:54;5.80;;;4.43;;
305;SDS011;137;48.578;9.180;2022-07-30T07:34:21;6.50;;;5.03;;
305;SDS011;137;48.578;9.180;2022-07-30T07:36:48;5.23;;;4.83;;
305;SDS011;137;48.578;9.180;2022-07-30T07:39:16;4.70;;;4.30;;
305;SDS011;137;48.578;9.180;2022-07-30T07:41:43;4.90;;;4.50;;
305;SDS011;137;48.578;9.180;2022-07-30T07:44:09;3.97;;;3.67;;
305;SDS011;137;48.578;9.180;2022-07-30T07:46:36;4.53;;;4.13;;
305;SDS011;137;48.578;9.180;2022-07-30T07:49:03;4.20;;;3.73;;
305;SDS011;137;48.578;9.180;2022-07-30T07:51:30;6.20;;;4.13;;
305;SDS011;137;48.578;9.180;2022-07-30T07:53:57;4.80;;;4.30;;
305;SDS011;137;48.578;9.180;2022-07-30T07:56:25;4.35;;;4.05;;
305;SDS011;137;48.578;9.180;2022-07-30T07:58:52;4.23;;;3.70;;
305;SDS011;137;48.578;9.180;2022-07-30T08:01:19;4.97;;;4.40;;
305;SDS011;137;48.578;9.180;2022-07-30T08:03:46;4.60;;;3.90;;
305;SDS011;137;48.578;9.180;2022-07-30T08:06:13;4.60;;;3.57;;
305;SDS011;137;48.578;9.180;2022-07-30T08:08:40;5.83;;;4.23;;
305;SDS011;137;48.578;9.180;2022-07-30T08:11:07;10.80;;;4.53;;
305;SDS011;137;48.578;9.180;2022-07-30T08:13:35;5.13;;;3.70;;
305;SDS011;137;48.578;9.180;2022-07-30T08:16:02;6.37;;;3.97;;
305;SDS011;137;48.578;9.180;2022-07-30T08:18:29;3.60;;;3.30;;
305;SDS011;137;48.578;9.180;2022-07-30T08:20:56;4.60;;;4.00;;
305;SDS011;137;48.578;9.180;2022-07-30T08:23:23;4.00;;;3.70;;
305;SDS011;137;48.578;9.180;2022-07-30T08:25:50;6.00;;;3.40;;
305;SDS011;137;48.578;9.180;2022-07-30T08:28:17;4.60;;;3.10;;
305;SDS011;137;48.578;9.180;2022-07-30T08:30:45;3.60;;;3.17;;
305;SDS011;137;48.578;9.180;2022-07-30T08:33:13;3.60;;;3.30;;
305;SDS011;137;48.578;9.180;2022-07-30T08:35:40;5.50;;;3.00;;
305;SDS011;137;48.578;9.180;2022-07-30T08:38:07;3.50;;;3.00;;
305;SDS011;137;48.578;9.180;2022-07-30T08:40:34;3.30;;;3.00;;
305;SDS011;137;48.578;9.180;2022-07-30T08:43:02;3.80;;;2.77;;
305;SDS011;137;48.578;9.180;2022-07-30T08:45:30;4.80;;;3.10;;
305;SDS011;137;48.578;9.180;2022-07-30T08:47:59;3.60;;;2.90;;
305;SDS011;137;48.578;9.180;2022-07-30T08:50:27;3.90;;;3.07;;
305;SDS011;137;48.578;9.180;2022-07-30T08:52:54;3.07;;;2.87;;
305;SDS011;137;48.578;9.180;2022-07-30T08:55:22;4.07;;;3.03;;
305;SDS011;137;48.578;9.180;2022-07-30T08:57:50;5.13;;;2.67;;
305;SDS011;137;48.578;9.180;2022-07-30T09:00:17;4.23;;;2.87;;
305;SDS011;137;48.578;9.180;2022-07-30T09:02:45;3.47;;;3.13;;
305;SDS011;137;48.578;9.180;2022-07-30T09:05:13;5.60;;;2.43;;
305;SDS011;137;48.578;9.180;2022-07-30T09:07:40;3.50;;;2.60;;
305;SDS011;137;48.578;9.180;2022-07-30T09:10:08;2.60;;;2.20;;
305;SDS011;137;48.578;9.180;2022-07-30T09:12:38;5.50;;;2.90;;
305;SDS011;137;48.578;9.180;2022-07-30T09:15:07;2.37;;;2.17;;
305;SDS011;137;48.578;9.180;2022-07-30T09:20:27;2.50;;;2.30;;
305;SDS011;137;48.578;9.180;2022-07-30T09:22:55;2.40;;;2.20;;
305;SDS011;137;48.578;9.180;2022-07-30T09:25:33;3.60;;;1.93;;
305;SDS011;137;48.578;9.180;2022-07-30T09:28:02;3.20;;;2.30;;
305;SDS011;137;48.578;9.180;2022-07-30T09:30:41;5.73;;;2.93;;
305;SDS011;137;48.578;9.180;2022-07-30T09:33:14;3.17;;;1.83;;
305;SDS011;137;48.578;9.180;2022-07-30T09:35:44;4.47;;;2.00;;
305;SDS011;137;48.578;9.180;2022-07-30T09:38:11;2.20;;;1.93;;
305;SDS011;137;48.578;9.180;2022-07-30T09:40:38;2.23;;;2.03;;
305;SDS011;137;48.578;9.180;2022-07-30T09:43:05;2.37;;;2.17;;
305;SDS011;137;48.578;9.180;2022-07-30T09:45:33;2.43;;;2.17;;
305;SDS011;137;48.578;9.180;2022-07-30T09:48:01;3.10;;;2.07;;
305;SDS011;137;48.578;9.180;2022-07-30T09:50:29;3.67;;;2.00;;
305;SDS011;137;48.578;9.180;2022-07-30T09:53:05;2.50;;;2.10;;
305;SDS011;137;48.578;9.180;2022-07-30T09:55:34;2.60;;;1.70;;
305;SDS011;137;48.578;9.180;2022-07-30T09:58:02;9.73;;;2.37;;
305;SDS011;137;48.578;9.180;2022-07-30T10:00:32;2.57;;;1.90;;
305;SDS011;137;48.578;9.180;2022-07-30T10:02:59;2.60;;;1.43;;
305;SDS011;137;48.578;9.180;2022-07-30T10:05:27;4.27;;;1.97;;
305;SDS011;137;48.578;9.180;2022-07-30T10:07:55;2.23;;;1.83;;
305;SDS011;137;48.578;9.180;2022-07-30T10:10:26;4.33;;;2.00;;
305;SDS011;137;48.578;9.180;2022-07-30T10:12:56;2.47;;;2.27;;
305;SDS011;137;48.578;9.180;2022-07-30T10:15:27;1.77;;;1.67;;
305;SDS011;137;48.578;9.180;2022-07-30T10:17:55;2.83;;;1.70;;
305;SDS011;137;48.578;9.180;2022-07-30T10:20:23;3.00;;;1.80;;
305;SDS011;137;48.578;9.180;2022-07-30T10:22:51;2.10;;;1.73;;
305;SDS011;137;48.578;9.180;2022-07-30T10:25:18;3.60;;;1.90;;
305;SDS011;137;48.578;9.180;2022-07-30T10:27:47;3.27;;;2.17;;
305;SDS011;137;48.578;9.180;2022-07-30T10:30:15;1.83;;;1.43;;
305;SDS011;137;48.578;9.180;2022-07-30T10:32:42;2.67;;;1.60;;
305;SDS011;137;48.578;9.180;2022-07-30T10:35:11;1.60;;;1.50;;
305;SDS011;137;48.578;9.180;2022-07-30T10:37:40;2.30;;;1.87;;
305;SDS011;137;48.578;9.180;2022-07-30T10:40:11;2.23;;;1.50;;
305;SDS011;137;48.578;9.180;2022-07-30T10:42:53;2.23;;;1.63;;
305;SDS011;137;48.578;9.180;2022-07-30T10:45:33;2.33;;;1.80;;
305;SDS011;137;48.578;9.180;2022-07-30T10:48:11;3.33;;;1.70;;
305;SDS011;137;48.578;9.180;2022-07-30T10:50:47;3.03;;;2.13;;
305;SDS011;137;48.578;9.180;2022-07-30T10:53:30;2.70;;;1.70;;
305;SDS011;137;48.578;9.180;2022-07-30T10:56:14;4.73;;;2.00;;
305;SDS011;137;48.578;9.180;2022-07-30T10:58:57;5.65;;;1.90;;
305;SDS011;137;48.578;9.180;2022-07-30T11:01:30;2.17;;;1.63;;
305;SDS011;137;48.578;9.180;2022-07-30T11:04:33;2.13;;;1.57;;
305;SDS011;137;48.578;9.180;2022-07-30T11:09:53;1.70;;;1.43;;
305;SDS011;137;48.578;9.180;2022-07-30T11:15:22;4.53;;;2.83;;
305;SDS011;137;48.578;9.180;2022-07-30T11:18:02;2.90;;;1.90;;
305;SDS011;137;48.578;9.180;2022-07-30T11:20:31;3.13;;;2.03;;
305;SDS011;137;48.578;9.180;2022-07-30T11:23:08;2.20;;;1.63;;
305;SDS011;137;48.578;9.180;2022-07-30T11:25:50;1.40;;;1.30;;
305;SDS011;137;48.578;9.180;2022-07-30T11:28:33;2.03;;;1.50;;
305;SDS011;137;48.578;9.180;2022-07-30T11:31:04;3.87;;;1.53;;
305;SDS011;137;48.578;9.180;2022-07-30T11:33:51;2.10;;;1.40;;
305;SDS011;137;48.578;9.180;2022-07-30T11:36:17;2.23;;;1.57;;
305;SDS011;137;48.578;9.180;2022-07-30T11:38:54;3.03;;;1.60;;
305;SDS011;137;48.578;9.180;2022-07-30T11:41:22;2.07;;;1.53;;
305;SDS011;137;48.578;9.180;2022-07-30T11:46:52;2.47;;;1.57;;
305;SDS011;137;48.578;9.180;2022-07-30T11:49:19;4.43;;;1.47;;
305;SDS011;137;48.578;9.180;2022-07-30T11:51:46;2.53;;;1.63;;
305;SDS011;137;48.578;9.180;2022-07-30T11:54:15;3.60;;;1.80;;
305;SDS011;137;48.578;9.180;2022-07-30T11:56:48;1.90;;;1.40;;
305;SDS011;137;48.578;9.180;2022-07-30T11:59:16;2.23;;;1.60;;
305;SDS011;137;48.578;9.180;2022-07-30T12:01:47;2.73;;;1.20;;
305;SDS011;137;48.578;9.180;2022-07-30T12:04:17;1.43;;;1.33;;
305;SDS011;137;48.578;9.180;2022-07-30T12:06:44;3.70;;;1.57;;
305;SDS011;137;48.578;9.180;2022-07-30T12:09:11;3.20;;;1.60;;
305;SDS011;137;48.578;9.180;2022-07-30T12:11:46;3.43;;;1.73;;
305;SDS011;137;48.578;9.180;2022-07-30T12:14:12;3.70;;;1.67;;
305;SDS011;137;48.578;9.180;2022-07-30T12:16:39;2.80;;;1.50;;
305;SDS011;137;48.578;9.180;2022-07-30T12:19:14;1.77;;;1.50;;
305;SDS011;137;48.578;9.180;2022-07-30T12:21:43;3.80;;;1.67;;
305;SDS011;137;48.578;9.180;2022-07-30T12:24:09;2.10;;;1.40;;
305;SDS011;137;48.578;9.180;2022-07-30T12:26:37;2.43;;;1.43;;
305;SDS011;137;48.578;9.180;2022-07-30T12:29:05;2.03;;;1.30;;
305;SDS011;137;48.578;9.180;2022-07-30T12:31:34;3.40;;;2.00;;
305;SDS011;137;48.578;9.180;2022-07-30T12:34:01;4.70;;;1.73;;
305;SDS011;137;48.578;9.180;2022-07-30T12:36:30;1.60;;;1.43;;
305;SDS011;137;48.578;9.180;2022-07-30T12:38:58;2.20;;;1.60;;
305;SDS011;137;48.578;9.180;2022-07-30T12:41:42;2.50;;;1.30;;
305;SDS011;137;48.578;9.180;2022-07-30T12:44:11;1.70;;;1.37;;
305;SDS011;137;48.578;9.180;2022-07-30T12:46:59;5.33;;;1.67;;
305;SDS011;137;48.578;9.180;2022-07-30T12:49:27;2.17;;;1.37;;
305;SDS011;137;48.578;9.180;2022-07-30T12:51:56;2.00;;;1.40;;
305;SDS011;137;48.578;9.180;2022-07-30T12:54:23;1.40;;;1.30;;
305;SDS011;137;48.578;9.180;2022-07-30T12:56:56;4.20;;;1.50;;
305;SDS011;137;48.578;9.180;2022-07-30T12:59:24;2.30;;;1.23;;
305;SDS011;137;48.578;9.180;2022-07-30T13:01:52;1.80;;;1.20;;
305;SDS011;137;48.578;9.180;2022-07-30T13:04:19;2.47;;;1.50;;
305;SDS011;137;48.578;9.180;2022-07-30T13:07:03;2.37;;;1.50;;
305;SDS011;137;48.578;9.180;2022-07-30T13:09:31;1.67;;;1.57;;
305;SDS011;137;48.578;9.180;2022-07-30T13:11:58;1.50;;;1.40;;
305;SDS011;137;48.578;9.180;2022-07-30T13:14:25;1.87;;;1.60;;
305;SDS011;137;48.578;9.180;2022-07-30T13:16:53;2.10;;;1.50;;
305;SDS011;137;48.578;9.180;2022-07-30T13:19:20;2.80;;;1.50;;
305;SDS011;137;48.578;9.180;2022-07-30T13:21:47;3.43;;;1.40;;
305;SDS011;137;48.578;9.180;2022-07-30T13:24:16;1.60;;;1.50;;
305;SDS011;137;48.578;9.180;2022-07-30T13:26:43;2.13;;;1.20;;
305;SDS011;137;48.578;9.180;2022-07-30T13:29:10;1.60;;;1.50;;
305;SDS011;137;48.578;9.180;2022-07-30T13:31:38;1.53;;;1.37;;
305;SDS011;137;48.578;9.180;2022-07-30T13:34:06;2.67;;;1.30;;
305;SDS011;137;48.578;9.180;2022-07-30T13:36:33;1.30;;;1.10;;
305;SDS011;137;48.578;9.180;2022-07-30T13:39:00;1.60;;;1.30;;
305;SDS011;137;48.578;9.180;2022-07-30T13:41:28;2.13;;;1.43;;
305;SDS011;137;48.578;9.180;2022-07-30T13:43:55;1.50;;;1.23;;
305;SDS011;137;48.578;9.180;2022-07-30T13:46:22;2.77;;;1.37;;
305;SDS011;137;48.578;9.180;2022-07-30T13:48:49;1.43;;;1.20;;
305;SDS011;137;48.578;9.180;2022-07-30T13:51:16;3.03;;;1.50;;
305;SDS011;137;48.578;9.180;2022-07-30T13:53:43;3.87;;;1.23;;
305;SDS011;137;48.578;9.180;2022-07-30T13:56:11;2.70;;;1.40;;
305;SDS011;137;48.578;9.180;2022-07-30T13:58:39;1.90;;;1.20;;
305;SDS011;137;48.578;9.180;2022-07-30T14:01:06;2.30;;;1.40;;
305;SDS011;137;48.578;9.180;2022-07-30T14:03:33;2.30;;;1.50;;
305;SDS011;137;48.578;9.180;2022-07-30T14:06:00;3.10;;;1.50;;
305;SDS011;137;48.578;9.180;2022-07-30T14:08:27;3.43;;;1.50;;
305;SDS011;137;48.578;9.180;2022-07-30T14:10:55;1.70;;;1.20;;
305;SDS011;137;48.578;9.180;2022-07-30T14:13:22;1.80;;;1.60;;
305;SDS011;137;48.578;9.180;2022-07-30T14:15:51;2.10;;;1.77;;
305;SDS011;137;48.578;9.180;2022-07-30T14:18:18;2.80;;;1.60;;
305;SDS011;137;48.578;9.180;2022-07-30T14:20:45;1.40;;;1.20;;
305;SDS011;137;48.578;9.180;2022-07-30T14:23:13;1.90;;;1.67;;
305;SDS011;137;48.578;9.180;2022-07-30T14:25:40;1.90;;;1.60;;
305;SDS011;137;48.578;9.180;2022-07-30T14:28:08;3.87;;;1.57;;
305;SDS011;137;48.578;9.180;2022-07-30T14:30:35;1.60;;;1.50;;
305;SDS011;137;48.578;9.180;2022-07-30T14:33:03;2.10;;;1.50;;
305;SDS011;137;48.578;9.180;2022-07-30T14:35:30;1.93;;;1.50;;
305;SDS011;137;48.578;9.180;2022-07-30T14:37:57;2.77;;;1.43;;
305;SDS011;137;48.578;9.180;2022-07-30T14:40:24;1.97;;;1.40;;
305;SDS011;137;48.578;9.180;2022-07-30T14:42:52;2.80;;;1.20;;
305;SDS011;137;48.578;9.180;2022-07-30T14:45:19;2.23;;;2.03;;
305;SDS011;137;48.578;9.180;2022-07-30T14:47:46;2.13;;;1.27;;
305;SDS011;137;48.578;9.180;2022-07-30T14:50:14;1.50;;;1.40;;
305;SDS011;137;48.578;9.180;2022-07-30T14:52:41;3.63;;;1.30;;
305;SDS011;137;48.578;9.180;2022-07-30T14:55:09;3.03;;;1.80;;
305;SDS011;137;48.578;9.180;2022-07-30T14:57:36;2.30;;;1.47;;
305;SDS011;137;48.578;9.180;2022-07-30T15:00:03;1.90;;;1.30;;
305;SDS011;137;48.578;9.180;2022-07-30T15:02:31;2.77;;;1.50;;
305;SDS011;137;48.578;9.180;2022-07-30T15:04:58;2.13;;;1.50;;
305;SDS011;137;48.578;9.180;2022-07-30T15:07:26;1.73;;;1.50;;
305;SDS011;137;48.578;9.180;2022-07-30T15:09:53;1.40;;;1.30;;
305;SDS011;137;48.578;9.180;2022-07-30T15:12:20;2.23;;;1.47;;
305;SDS011;137;48.578;9.180;2022-07-30T15:14:47;2.77;;;1.33;;
305;SDS011;137;48.578;9.180;2022-07-30T15:17:14;2.00;;;1.60;;
305;SDS011;137;48.578;9.180;2022-07-30T15:19:41;2.47;;;1.80;;
305;SDS011;137;48.578;9.180;2022-07-30T15:22:07;1.50;;;1.37;;
305;SDS011;137;48.578;9.180;2022-07-30T15:24:36;1.97;;;1.40;;
305;SDS011;137;48.578;9.180;2022-07-30T15:27:03;2.57;;;1.60;;
305;SDS011;137;48.578;9.180;2022-07-30T15:29:29;1.90;;;1.53;;
305;SDS011;137;48.578;9.180;2022-07-30T15:31:56;1.73;;;1.50;;
305;SDS011;137;48.578;9.180;2022-07-30T15:34:24;1.47;;;1.20;;
305;SDS011;137;48.578;9.180;2022-07-30T15:36:52;1.87;;;1.30;;
305;SDS011;137;48.578;9.180;2022-07-30T15:39:19;2.17;;;1.20;;
305;SDS011;137;48.578;9.180;2022-07-30T15:41:47;3.73;;;1.23;;
305;SDS011;137;48.578;9.180;2022-07-30T15:44:16;1.53;;;1.30;;
305;SDS011;137;48.578;9.180;2022-07-30T15:46:43;2.03;;;1.63;;
305;SDS011;137;48.578;9.180;2022-07-30T15:49:10;1.40;;;1.30;;
305;SDS011;137;48.578;9.180;2022-07-30T15:51:37;1.23;;;1.13;;
305;SDS011;137;48.578;9.180;2022-07-30T15:54:11;1.50;;;1.27;;
305;SDS011;137;48.578;9.180;2022-07-30T15:56:38;1.50;;;1.30;;
305;SDS011;137;48.578;9.180;2022-07-30T15:59:06;1.50;;;1.30;;
305;SDS011;137;48.578;9.180;2022-07-30T16:01:34;1.70;;;1.47;;
305;SDS011;137;48.578;9.180;2022-07-30T16:04:00;1.40;;;1.30;;
305;SDS011;137;48.578;9.180;2022-07-30T16:06:28;4.87;;;1.80;;
305;SDS011;137;48.578;9.180;2022-07-30T16:08:55;2.03;;;1.50;;